createdAt,value
2019-03-18T00:02:08.630Z,99715.28
2019-03-18T00:04:39.908Z,99722.00
2019-03-18T00:07:11.213Z,99719.19
2019-03-18T00:09:42.527Z,99713.16
2019-03-18T00:12:13.790Z,99725.80
2019-03-18T00:14:45.087Z,99727.48
2019-03-18T00:17:16.363Z,99725.05
2019-03-18T00:19:47.662Z,99727.27
2019-03-18T00:22:18.958Z,99724.94
2019-03-18T00:24:50.263Z,99732.41
2019-03-18T00:27:21.555Z,99730.52
2019-03-18T00:29:52.812Z,99728.41
2019-03-18T00:32:24.150Z,99729.00
2019-03-18T00:34:55.560Z,99728.90
2019-03-18T00:37:26.836Z,99742.89
2019-03-18T00:39:58.146Z,99746.03
2019-03-18T00:42:29.432Z,99739.96
2019-03-18T00:45:13.795Z,99748.59
2019-03-18T00:47:33.712Z,99751.52
2019-03-18T00:50:05.839Z,99741.33
2019-03-18T00:52:37.107Z,99749.58
2019-03-18T00:55:08.595Z,99745.56
2019-03-18T00:57:39.880Z,99741.92
2019-03-18T01:00:11.489Z,99749.03
2019-03-18T01:02:42.817Z,99750.77
2019-03-18T01:05:14.420Z,99751.79
2019-03-18T01:07:45.935Z,99757.05
2019-03-18T01:10:17.298Z,99754.06
2019-03-18T01:12:48.591Z,99754.55
2019-03-18T01:15:27.965Z,99756.13
2019-03-18T01:17:52.922Z,99744.14
2019-03-18T01:20:24.182Z,99753.27
2019-03-18T01:22:58.271Z,99756.66
2019-03-18T01:25:29.572Z,99758.34
2019-03-18T01:28:00.827Z,99759.38
2019-03-18T01:30:32.120Z,99757.16
2019-03-18T01:33:03.436Z,99761.49
2019-03-18T01:35:34.799Z,99758.34
2019-03-18T01:38:06.075Z,99762.27
2019-03-18T01:40:37.302Z,99764.85
2019-03-18T01:43:08.652Z,99764.00
2019-03-18T01:45:41.153Z,99764.20
2019-03-18T01:48:12.585Z,99764.27
2019-03-18T01:50:43.850Z,99758.25
2019-03-18T01:53:15.144Z,99744.09
2019-03-18T01:55:46.439Z,99760.46
2019-03-18T01:58:17.727Z,99773.92
2019-03-18T02:00:49.060Z,99767.08
2019-03-18T02:03:20.423Z,99767.80
2019-03-18T02:05:51.730Z,99763.89
2019-03-18T02:08:22.991Z,99762.53
2019-03-18T02:10:54.291Z,99760.96
2019-03-18T02:13:25.601Z,99768.05
2019-03-18T02:15:56.913Z,99766.59
2019-03-18T02:18:28.204Z,99771.86
2019-03-18T02:20:59.472Z,99765.19
2019-03-18T02:23:30.762Z,99765.78
2019-03-18T02:26:02.037Z,99765.68
2019-03-18T02:28:33.339Z,99783.69
2019-03-18T02:31:04.605Z,99768.33
2019-03-18T02:33:35.938Z,99775.22
2019-03-18T02:36:07.230Z,99765.06
2019-03-18T02:38:38.480Z,99767.63
2019-03-18T02:41:09.775Z,99778.20
2019-03-18T02:43:41.118Z,99774.95
2019-03-18T02:46:12.400Z,99773.69
2019-03-18T02:48:43.658Z,99769.20
2019-03-18T02:51:14.953Z,99758.42
2019-03-18T02:53:46.238Z,99766.04
2019-03-18T02:56:17.506Z,99767.11
2019-03-18T02:58:48.759Z,99782.38
2019-03-18T03:01:20.055Z,99795.45
2019-03-18T03:03:51.313Z,99800.91
2019-03-18T03:06:22.612Z,99817.80
2019-03-18T03:08:53.972Z,99816.56
2019-03-18T03:11:25.251Z,99820.03
2019-03-18T03:13:56.665Z,99818.83
2019-03-18T03:16:28.065Z,99808.24
2019-03-18T03:18:59.393Z,99826.59
2019-03-18T03:21:30.678Z,99834.03
2019-03-18T03:24:01.961Z,99836.34
2019-03-18T03:26:33.235Z,99840.17
2019-03-18T03:29:04.525Z,99841.58
2019-03-18T03:31:35.826Z,99843.31
2019-03-18T03:34:12.865Z,99843.70
2019-03-18T03:36:42.847Z,99842.40
2019-03-18T03:39:14.158Z,99833.70
2019-03-18T03:41:45.474Z,99842.01
2019-03-18T03:44:16.795Z,99840.59
2019-03-18T03:46:48.130Z,99850.92
2019-03-18T03:49:19.421Z,99854.11
2019-03-18T03:51:50.706Z,99856.00
2019-03-18T03:54:21.974Z,99861.97
2019-03-18T03:56:53.634Z,99871.48
2019-03-18T03:59:25.193Z,99868.48
2019-03-18T04:01:56.493Z,99876.14
2019-03-18T04:04:27.790Z,99874.84
2019-03-18T04:06:59.129Z,99881.06
2019-03-18T04:09:30.500Z,99868.92
2019-03-18T04:12:01.884Z,99872.55
2019-03-18T04:14:33.239Z,99878.63
2019-03-18T04:17:04.538Z,99873.84
2019-03-18T04:19:35.845Z,99872.98
2019-03-18T04:22:07.157Z,99875.62
2019-03-18T04:24:38.457Z,99889.04
2019-03-18T04:27:09.719Z,99889.59
2019-03-18T04:29:41.111Z,99883.58
2019-03-18T04:32:12.404Z,99894.09
2019-03-18T04:34:43.651Z,99893.27
2019-03-18T04:37:14.930Z,99894.91
2019-03-18T04:39:46.186Z,99889.80
2019-03-18T04:42:17.480Z,99898.72
2019-03-18T04:44:48.738Z,99903.58
2019-03-18T04:47:20.001Z,99912.22
2019-03-18T04:49:51.300Z,99906.58
2019-03-18T04:52:22.574Z,99907.67
2019-03-18T04:54:53.889Z,99908.64
2019-03-18T04:57:25.185Z,99909.51
2019-03-18T04:59:56.536Z,99915.87
2019-03-18T05:02:27.846Z,99919.92
2019-03-18T05:04:59.099Z,99919.94
2019-03-18T05:07:30.348Z,99923.09
2019-03-18T05:10:01.635Z,99931.06
2019-03-18T05:12:32.893Z,99926.09
2019-03-18T05:15:04.278Z,99923.91
2019-03-18T05:17:35.688Z,99931.06
2019-03-18T05:20:07.209Z,99934.92
2019-03-18T05:22:38.518Z,99940.09
2019-03-18T05:25:10.192Z,99945.20
2019-03-18T05:27:41.517Z,99950.53
2019-03-18T05:30:12.959Z,99951.59
2019-03-18T05:32:44.285Z,99961.23
2019-03-18T05:35:15.611Z,99958.11
2019-03-18T05:37:46.895Z,99968.00
2019-03-18T05:40:18.282Z,99971.32
2019-03-18T05:42:49.598Z,99980.73
2019-03-18T05:45:20.887Z,99986.03
2019-03-18T05:47:52.160Z,99993.52
2019-03-18T05:50:23.472Z,99991.10
2019-03-18T05:52:54.763Z,99989.84
2019-03-18T05:55:26.018Z,99998.42
2019-03-18T05:57:57.327Z,100000.89
2019-03-18T06:00:28.564Z,100000.89
2019-03-18T06:02:59.892Z,100002.34
2019-03-18T06:05:31.292Z,100004.30
2019-03-18T06:08:02.573Z,99999.72
2019-03-18T06:10:33.858Z,100010.88
2019-03-18T06:13:05.186Z,100009.14
2019-03-18T06:15:36.513Z,100018.16
2019-03-18T06:18:07.828Z,100023.27
2019-03-18T06:20:39.088Z,100018.92
2019-03-18T06:23:10.373Z,100031.46
2019-03-18T06:25:41.645Z,100041.45
2019-03-18T06:28:12.878Z,100045.17
2019-03-18T06:30:44.132Z,100047.61
2019-03-18T06:33:15.457Z,100046.79
2019-03-18T06:35:46.704Z,100051.91
2019-03-18T06:38:18.006Z,100051.53
2019-03-18T06:40:49.307Z,100054.14
2019-03-18T06:43:20.668Z,100059.45
2019-03-18T06:45:51.953Z,100074.66
2019-03-18T06:48:23.270Z,100075.09
2019-03-18T06:50:54.590Z,100072.01
2019-03-18T06:53:25.928Z,100072.19
2019-03-18T06:55:57.251Z,100082.61
2019-03-18T06:58:28.566Z,100084.15
2019-03-18T07:00:59.867Z,100088.06
2019-03-18T07:03:31.170Z,100081.55
2019-03-18T07:06:02.453Z,100088.91
2019-03-18T07:08:33.711Z,100092.19
2019-03-18T07:11:05.033Z,100098.27
2019-03-18T07:13:36.326Z,100104.26
2019-03-18T07:16:07.575Z,100113.59
2019-03-18T07:18:38.910Z,100113.33
2019-03-18T07:21:10.188Z,100115.78
2019-03-18T07:23:42.564Z,100111.10
2019-03-18T07:26:13.862Z,100127.12
2019-03-18T07:28:45.177Z,100132.58
2019-03-18T07:31:16.501Z,100137.24
2019-03-18T07:33:47.796Z,100142.34
2019-03-18T07:36:19.098Z,100153.36
2019-03-18T07:38:50.373Z,100155.13
2019-03-18T07:41:24.744Z,100157.97
2019-03-18T07:43:56.022Z,100156.98
2019-03-18T07:46:27.304Z,100165.92
2019-03-18T07:48:58.649Z,100173.02
2019-03-18T07:51:30.000Z,100172.89
2019-03-18T07:54:01.264Z,100174.62
2019-03-18T07:56:32.525Z,100179.80
2019-03-18T07:59:03.821Z,100184.59
2019-03-18T08:01:35.081Z,100190.38
2019-03-18T08:04:06.428Z,100191.72
2019-03-18T08:06:37.698Z,100187.05
2019-03-18T08:09:10.199Z,100186.55
2019-03-18T08:11:41.459Z,100194.14
2019-03-18T08:14:12.710Z,100193.03
2019-03-18T08:16:44.053Z,100199.23
2019-03-18T08:19:15.318Z,100199.80
2019-03-18T08:21:46.673Z,100208.02
2019-03-18T08:24:17.945Z,100214.84
2019-03-18T08:26:52.153Z,100218.31
2019-03-18T08:29:23.456Z,100216.92
2019-03-18T08:31:54.735Z,100212.05
2019-03-18T08:34:26.018Z,100219.03
2019-03-18T08:36:57.311Z,100216.44
2019-03-18T08:39:28.562Z,100226.88
2019-03-18T08:41:59.855Z,100229.34
2019-03-18T08:44:31.127Z,100235.82
2019-03-18T08:47:02.378Z,100242.34
2019-03-18T08:49:33.748Z,100242.90
2019-03-18T08:52:05.949Z,100244.91
2019-03-18T08:54:37.214Z,100244.39
2019-03-18T08:57:08.516Z,100258.22
2019-03-18T08:59:39.778Z,100252.88
2019-03-18T09:02:11.074Z,100252.59
2019-03-18T09:04:42.334Z,100261.50
2019-03-18T09:07:13.599Z,100266.77
2019-03-18T09:09:44.872Z,100270.06
2019-03-18T09:12:16.138Z,100277.19
2019-03-18T09:14:47.455Z,100275.66
2019-03-18T09:17:18.740Z,100274.48
2019-03-18T09:19:50.021Z,100275.86
2019-03-18T09:22:21.349Z,100268.05
2019-03-18T09:24:52.641Z,100276.89
2019-03-18T09:27:23.959Z,100274.66
2019-03-18T09:29:55.289Z,100283.23
2019-03-18T09:32:26.538Z,100285.04
2019-03-18T09:34:57.848Z,100282.01
2019-03-18T09:37:29.160Z,100287.63
2019-03-18T09:40:00.495Z,100293.67
2019-03-18T09:42:31.820Z,100308.72
2019-03-18T09:45:03.153Z,100294.08
2019-03-18T09:47:34.468Z,100303.28
2019-03-18T09:50:08.871Z,100296.29
2019-03-18T09:52:40.187Z,100301.25
2019-03-18T09:55:11.500Z,100303.44
2019-03-18T09:57:42.760Z,100304.34
2019-03-18T10:00:14.478Z,100307.92
2019-03-18T10:02:45.760Z,100313.21
2019-03-18T10:05:17.077Z,100315.34
2019-03-18T10:07:48.554Z,100312.35
2019-03-18T10:10:19.851Z,100318.27
2019-03-18T10:12:51.178Z,100324.23
2019-03-18T10:15:22.468Z,100332.91
2019-03-18T10:17:53.784Z,100337.91
2019-03-18T10:20:25.068Z,100335.28
2019-03-18T10:22:56.344Z,100337.12
2019-03-18T10:25:27.638Z,100331.59
2019-03-18T10:27:58.946Z,100332.56
2019-03-18T10:30:30.214Z,100348.34
2019-03-18T10:33:01.520Z,100343.16
2019-03-18T10:35:32.824Z,100342.05
2019-03-18T10:38:04.107Z,100332.56
2019-03-18T10:40:35.459Z,100343.34
2019-03-18T10:43:06.794Z,100343.36
2019-03-18T10:45:38.217Z,100346.42
2019-03-18T10:48:09.490Z,100347.39
2019-03-18T10:50:40.829Z,100350.20
2019-03-18T10:53:12.131Z,100357.12
2019-03-18T10:55:43.403Z,100360.27
2019-03-18T10:58:14.701Z,100371.03
2019-03-18T11:00:47.282Z,100367.13
2019-03-18T11:03:18.551Z,100380.28
2019-03-18T11:05:49.807Z,100363.73
2019-03-18T11:08:21.148Z,100369.93
2019-03-18T11:10:52.504Z,100361.88
2019-03-18T11:13:23.802Z,100370.98
2019-03-18T11:15:55.178Z,100359.00
2019-03-18T11:18:26.478Z,100361.94
2019-03-18T11:20:57.790Z,100368.70
2019-03-18T11:23:29.153Z,100367.29
2019-03-18T11:26:00.450Z,100373.35
2019-03-18T11:28:31.720Z,100369.48
2019-03-18T11:31:02.972Z,100366.73
2019-03-18T11:33:34.242Z,100384.47
2019-03-18T11:36:05.600Z,100374.75
2019-03-18T11:38:36.883Z,100389.61
2019-03-18T11:41:08.190Z,100383.94
2019-03-18T11:43:39.481Z,100389.13
2019-03-18T11:46:10.773Z,100397.56
2019-03-18T11:48:42.069Z,100395.95
2019-03-18T11:51:13.405Z,100413.77
2019-03-18T11:53:44.682Z,100421.03
2019-03-18T11:56:15.953Z,100434.59
2019-03-18T11:58:47.221Z,100425.62
2019-03-18T12:01:18.512Z,100443.53
2019-03-18T12:03:49.797Z,100429.51
2019-03-18T12:06:21.112Z,100428.61
2019-03-18T12:08:52.368Z,100432.83
2019-03-18T12:11:23.677Z,100433.17
2019-03-18T12:13:54.942Z,100429.84
2019-03-18T12:16:26.250Z,100426.33
2019-03-18T12:18:57.562Z,100426.38
2019-03-18T12:21:28.887Z,100428.19
2019-03-18T12:24:00.267Z,100416.64
2019-03-18T12:26:31.572Z,100407.89
2019-03-18T12:29:02.836Z,100412.50
2019-03-18T12:31:34.218Z,100417.73
2019-03-18T12:34:05.552Z,100415.89
2019-03-18T12:36:36.827Z,100427.34
2019-03-18T12:39:08.717Z,100419.77
2019-03-18T12:41:40.074Z,100414.80
2019-03-18T12:44:11.371Z,100423.70
2019-03-18T12:46:42.648Z,100420.14
2019-03-18T12:49:13.928Z,100423.49
2019-03-18T12:51:45.222Z,100417.71
2019-03-18T12:54:16.521Z,100414.59
2019-03-18T12:56:47.828Z,100419.05
2019-03-18T12:59:19.133Z,100413.20
2019-03-18T13:01:50.543Z,100418.34
2019-03-18T13:04:22.850Z,100420.51
2019-03-18T13:06:54.201Z,100415.83
2019-03-18T13:09:25.559Z,100427.23
2019-03-18T13:11:56.860Z,100431.17
2019-03-18T13:14:28.195Z,100423.07
2019-03-18T13:16:59.467Z,100420.28
2019-03-18T13:19:30.773Z,100423.95
2019-03-18T13:22:02.092Z,100415.25
2019-03-18T13:24:33.387Z,100417.31
2019-03-18T13:27:04.685Z,100409.89
2019-03-18T13:29:36.025Z,100417.32
2019-03-18T13:32:07.316Z,100422.66
2019-03-18T13:34:38.643Z,100423.41
2019-03-18T13:37:09.916Z,100439.69
2019-03-18T13:39:41.228Z,100434.13
2019-03-18T13:42:12.529Z,100434.78
2019-03-18T13:44:43.862Z,100434.23
2019-03-18T13:47:15.168Z,100427.22
2019-03-18T13:49:46.473Z,100440.20
2019-03-18T13:52:17.820Z,100439.98
2019-03-18T13:54:49.122Z,100447.52
2019-03-18T13:57:20.435Z,100454.09
2019-03-18T13:59:51.787Z,100446.52
2019-03-18T14:02:23.058Z,100434.06
2019-03-18T14:04:54.360Z,100425.70
2019-03-18T14:07:25.703Z,100431.59
2019-03-18T14:09:56.992Z,100439.78
2019-03-18T14:12:28.278Z,100433.31
2019-03-18T14:14:59.575Z,100436.30
2019-03-18T14:17:30.876Z,100439.15
2019-03-18T14:20:02.164Z,100446.40
2019-03-18T14:22:33.482Z,100446.52
2019-03-18T14:25:05.016Z,100457.70
2019-03-18T14:27:36.296Z,100462.15
2019-03-18T14:30:10.506Z,100465.56
2019-03-18T14:32:41.797Z,100458.20
2019-03-18T14:35:13.244Z,100454.08
2019-03-18T14:37:44.618Z,100455.11
2019-03-18T14:40:15.965Z,100457.87
2019-03-18T14:42:47.267Z,100462.38
2019-03-18T14:45:19.915Z,100459.03
2019-03-18T14:47:51.210Z,100467.72
2019-03-18T14:50:22.722Z,100468.37
2019-03-18T14:52:54.013Z,100471.58
2019-03-18T14:55:25.326Z,100473.66
2019-03-18T14:57:59.349Z,100482.20
2019-03-18T15:00:30.693Z,100507.45
2019-03-18T15:03:01.967Z,100514.16
2019-03-18T15:05:33.340Z,100517.36
2019-03-18T15:08:04.607Z,100535.25
2019-03-18T15:10:35.890Z,100535.69
2019-03-18T15:13:07.219Z,100543.84
2019-03-18T15:15:38.491Z,100537.75
2019-03-18T15:18:09.806Z,100534.34
2019-03-18T15:20:41.074Z,100531.76
2019-03-18T15:23:12.415Z,100539.09
2019-03-18T15:25:43.740Z,100534.88
2019-03-18T15:28:15.030Z,100539.86
2019-03-18T15:30:46.329Z,100541.08
2019-03-18T15:33:17.629Z,100549.34
2019-03-18T15:35:48.891Z,100553.86
2019-03-18T15:38:20.168Z,100546.75
2019-03-18T15:40:51.466Z,100555.10
2019-03-18T15:43:22.804Z,100553.82
2019-03-18T15:45:54.140Z,100559.02
2019-03-18T15:48:25.454Z,100556.42
2019-03-18T15:50:56.734Z,100559.45
2019-03-18T15:53:28.028Z,100562.30
2019-03-18T15:55:59.331Z,100562.06
2019-03-18T15:58:30.589Z,100562.06
2019-03-18T16:01:01.862Z,100567.47
2019-03-18T16:03:33.117Z,100574.94
2019-03-18T16:06:04.405Z,100577.41
2019-03-18T16:08:35.772Z,100567.83
2019-03-18T16:11:07.028Z,100568.58
2019-03-18T16:13:38.299Z,100576.91
2019-03-18T16:16:09.603Z,100577.27
2019-03-18T16:18:40.862Z,100576.34
2019-03-18T16:21:12.189Z,100579.17
2019-03-18T16:23:43.460Z,100583.25
2019-03-18T16:26:14.925Z,100588.37
2019-03-18T16:28:46.242Z,100583.16
2019-03-18T16:31:17.554Z,100592.63
2019-03-18T16:33:48.817Z,100593.88
2019-03-18T16:36:20.105Z,100601.41
2019-03-18T16:38:51.443Z,100604.45
2019-03-18T16:41:22.720Z,100612.81
2019-03-18T16:43:54.007Z,100613.33
2019-03-18T16:46:25.305Z,100620.16
2019-03-18T16:48:56.593Z,100620.45
2019-03-18T16:51:27.912Z,100629.84
2019-03-18T16:53:59.185Z,100624.91
2019-03-18T16:56:30.526Z,100627.69
2019-03-18T16:59:01.865Z,100629.45
2019-03-18T17:01:33.185Z,100635.36
2019-03-18T17:04:04.496Z,100641.83
2019-03-18T17:06:37.999Z,100640.64
2019-03-18T17:09:09.203Z,100645.67
2019-03-18T17:11:40.527Z,100645.50
2019-03-18T17:14:11.805Z,100647.64
2019-03-18T17:16:43.062Z,100651.02
2019-03-18T17:19:14.365Z,100656.95
2019-03-18T17:21:45.651Z,100652.41
2019-03-18T17:24:16.935Z,100651.92
2019-03-18T17:26:48.194Z,100654.28
2019-03-18T17:29:19.547Z,100660.15
2019-03-18T17:31:50.844Z,100669.33
2019-03-18T17:34:22.145Z,100675.22
2019-03-18T17:36:53.490Z,100674.08
2019-03-18T17:39:24.813Z,100677.20
2019-03-18T17:41:56.155Z,100687.94
2019-03-18T17:44:27.488Z,100681.92
2019-03-18T17:46:58.836Z,100692.87
2019-03-18T17:49:30.141Z,100697.72
2019-03-18T17:52:01.461Z,100699.59
2019-03-18T17:54:32.786Z,100701.83
2019-03-18T17:57:07.638Z,100708.88
2019-03-18T17:59:37.052Z,100708.02
2019-03-18T18:02:08.414Z,100709.38
2019-03-18T18:04:39.716Z,100714.30
2019-03-18T18:07:11.059Z,100721.78
2019-03-18T18:09:42.350Z,100718.78
2019-03-18T18:12:13.672Z,100720.95
2019-03-18T18:14:44.996Z,100730.46
2019-03-18T18:17:16.265Z,100731.98
2019-03-18T18:19:47.540Z,100728.17
2019-03-18T18:22:18.876Z,100726.58
2019-03-18T18:24:50.123Z,100730.57
2019-03-18T18:27:21.437Z,100737.67
2019-03-18T18:29:52.742Z,100739.52
2019-03-18T18:32:24.021Z,100744.70
2019-03-18T18:34:55.401Z,100747.81
2019-03-18T18:37:26.823Z,100748.02
2019-03-18T18:39:58.086Z,100760.34
2019-03-18T18:42:29.405Z,100757.78
2019-03-18T18:45:00.703Z,100754.81
2019-03-18T18:47:32.009Z,100751.00
2019-03-18T18:50:03.361Z,100758.41
2019-03-18T18:52:34.645Z,100760.27
2019-03-18T18:55:06.276Z,100763.41
2019-03-18T18:57:37.580Z,100773.98
2019-03-18T19:00:11.699Z,100778.45
2019-03-18T19:02:43.034Z,100784.99
2019-03-18T19:05:14.998Z,100779.46
2019-03-18T19:07:46.412Z,100779.55
2019-03-18T19:10:17.756Z,100785.22
2019-03-18T19:12:49.116Z,100791.23
2019-03-18T19:15:21.473Z,100794.33
2019-03-18T19:17:52.756Z,100801.31
2019-03-18T19:20:24.130Z,100801.36
2019-03-18T19:22:55.388Z,100805.94
2019-03-18T19:25:26.668Z,100810.87
2019-03-18T19:27:58.021Z,100812.61
2019-03-18T19:30:29.278Z,100809.56
2019-03-18T19:33:00.548Z,100810.40
2019-03-18T19:35:31.855Z,100815.97
2019-03-18T19:38:03.176Z,100817.32
2019-03-18T19:40:34.471Z,100828.58
2019-03-18T19:43:05.789Z,100828.54
2019-03-18T19:45:37.178Z,100826.41
2019-03-18T19:48:08.429Z,100829.80
2019-03-18T19:50:39.733Z,100826.70
2019-03-18T19:53:11.057Z,100833.94
2019-03-18T19:55:42.355Z,100834.94
2019-03-18T19:58:13.666Z,100832.28
2019-03-18T20:00:44.993Z,100843.48
2019-03-18T20:03:16.391Z,100846.59
2019-03-18T20:05:47.656Z,100846.19
2019-03-18T20:08:19.015Z,100849.69
2019-03-18T20:10:50.332Z,100848.91
2019-03-18T20:13:21.616Z,100859.47
2019-03-18T20:15:52.989Z,100859.95
2019-03-18T20:18:24.281Z,100860.39
2019-03-18T20:20:56.984Z,100871.91
2019-03-18T20:23:28.393Z,100872.05
2019-03-18T20:25:59.696Z,100883.03
2019-03-18T20:28:31.030Z,100890.89
2019-03-18T20:31:02.457Z,100890.81
2019-03-18T20:33:33.771Z,100895.64
2019-03-18T20:36:05.217Z,100903.45
2019-03-18T20:38:36.601Z,100903.50
2019-03-18T20:41:07.960Z,100906.95
2019-03-18T20:43:39.371Z,100910.44
2019-03-18T20:46:10.767Z,100910.39
2019-03-18T20:48:42.091Z,100911.75
2019-03-18T20:51:13.447Z,100908.13
2019-03-18T20:53:44.731Z,100912.14
2019-03-18T20:56:18.813Z,100916.55
2019-03-18T20:58:50.104Z,100919.20
2019-03-18T21:01:21.420Z,100920.56
2019-03-18T21:03:52.738Z,100932.34
2019-03-18T21:06:24.050Z,100921.87
2019-03-18T21:08:55.337Z,100928.41
2019-03-18T21:11:26.624Z,100924.87
2019-03-18T21:13:57.933Z,100931.46
2019-03-18T21:16:29.223Z,100938.05
2019-03-18T21:19:00.525Z,100945.03
2019-03-18T21:21:31.797Z,100950.27
2019-03-18T21:24:03.077Z,100952.05
2019-03-18T21:26:34.504Z,100964.66
2019-03-18T21:29:05.869Z,100965.49
2019-03-18T21:31:37.182Z,100965.05
2019-03-18T21:34:08.495Z,100967.63
2019-03-18T21:36:39.783Z,100972.87
2019-03-18T21:39:11.862Z,100970.73
2019-03-18T21:41:43.211Z,100974.73
2019-03-18T21:44:14.459Z,100978.30
2019-03-18T21:46:45.787Z,100984.45
2019-03-18T21:49:17.966Z,100984.99
2019-03-18T21:51:49.270Z,100989.43
2019-03-18T21:54:20.570Z,100988.23
2019-03-18T21:56:51.861Z,100986.99
2019-03-18T21:59:23.174Z,100988.88
2019-03-18T22:01:54.455Z,100989.02
2019-03-18T22:04:25.803Z,100989.55
2019-03-18T22:06:57.153Z,100994.41
2019-03-18T22:09:28.462Z,100991.42
2019-03-18T22:11:59.812Z,100985.39
2019-03-18T22:14:31.137Z,100981.09
2019-03-18T22:17:02.423Z,100984.23
2019-03-18T22:19:33.720Z,100983.83
2019-03-18T22:22:05.052Z,100981.75
2019-03-18T22:24:44.739Z,100982.24
2019-03-18T22:27:09.297Z,100995.34
2019-03-18T22:29:40.595Z,101005.45
2019-03-18T22:32:11.897Z,100998.45
2019-03-18T22:34:43.268Z,100999.70
2019-03-18T22:37:14.583Z,101007.73
2019-03-18T22:39:45.887Z,101004.33
2019-03-18T22:42:17.232Z,101000.94
2019-03-18T22:44:48.708Z,101003.59
2019-03-18T22:47:19.974Z,101007.97
2019-03-18T22:49:51.280Z,101013.70
2019-03-18T22:52:22.581Z,101013.33
2019-03-18T22:54:56.124Z,101019.47
2019-03-18T22:57:26.889Z,101015.16
2019-03-18T22:59:58.126Z,101014.31
2019-03-18T23:02:29.452Z,101014.34
2019-03-18T23:05:00.723Z,101018.71
2019-03-18T23:07:32.043Z,101020.48
2019-03-18T23:10:03.728Z,101018.31
2019-03-18T23:12:35.014Z,101027.00
2019-03-18T23:15:06.424Z,101022.70
2019-03-18T23:17:37.738Z,101031.38
2019-03-18T23:20:09.153Z,101032.22
2019-03-18T23:22:40.451Z,101033.09
2019-03-18T23:25:11.910Z,101030.91
2019-03-18T23:27:43.174Z,101034.41
2019-03-18T23:30:14.507Z,101033.98
2019-03-18T23:32:45.787Z,101046.58
2019-03-18T23:35:17.075Z,101042.30
2019-03-18T23:37:48.416Z,101044.50
2019-03-18T23:40:19.706Z,101043.64
2019-03-18T23:42:51.008Z,101042.38
2019-03-18T23:45:22.303Z,101048.07
2019-03-18T23:47:53.763Z,101044.66
2019-03-18T23:50:25.078Z,101047.28
2019-03-18T23:52:56.387Z,101051.66
2019-03-18T23:55:27.701Z,101057.81
2019-03-18T23:57:58.988Z,101058.71
